Time;durP1;ratioP1;P1;durP2;ratioP2;P2;SDS_P1;SDS_P2;PMS_P1;PMS_P2;Temp;Humidity;BMP_temperature;BMP_pressure;BME280_temperature;BME280_humidity;BME280_pressure;Samples;Min_cycle;Max_cycle;Signal;HPM_P1;HPM_P2
2022/11/10 00:01:57;;;;;;;22.63;21.83;;;10.80;99.90;;;;;;5006597;28;20030;-74
2022/11/10 00:04:23;;;;;;;25.40;24.50;;;10.70;99.90;;;;;;4994101;28;20031;-75
2022/11/10 00:06:48;;;;;;;26.25;25.25;;;10.70;99.90;;;;;;4997122;28;20040;-76
2022/11/10 00:09:14;;;;;;;26.30;25.30;;;10.70;99.90;;;;;;5003268;28;20571;-75
2022/11/10 00:11:41;;;;;;;24.58;23.67;;;10.60;99.90;;;;;;5006671;28;20062;-75
2022/11/10 00:17:11;;;;;;;27.17;26.17;;;10.60;99.90;;;;;;4969772;28;20464;-74
2022/11/10 00:19:36;;;;;;;24.75;23.85;;;10.60;99.90;;;;;;4962286;28;20035;-76
2022/11/10 00:22:02;;;;;;;24.23;23.33;;;10.60;99.90;;;;;;4993189;28;20097;-75
2022/11/10 00:24:28;;;;;;;26.65;25.65;;;10.50;99.90;;;;;;4996787;28;20022;-76
2022/11/10 00:26:54;;;;;;;25.70;24.70;;;10.60;99.90;;;;;;5007654;28;20029;-75
2022/11/10 00:29:21;;;;;;;27.17;26.17;;;10.50;99.90;;;;;;5009530;28;20214;-76
2022/11/10 00:31:47;;;;;;;26.17;25.17;;;10.40;99.90;;;;;;4995808;28;20049;-75
2022/11/10 00:34:16;;;;;;;27.73;26.70;;;10.30;99.90;;;;;;5008764;28;20022;-75
2022/11/10 00:36:42;;;;;;;25.20;24.30;;;10.30;99.90;;;;;;5003164;28;20476;-75
2022/11/10 00:39:08;;;;;;;25.85;24.85;;;10.20;99.90;;;;;;5001831;28;20034;-75
2022/11/10 00:41:34;;;;;;;26.33;25.33;;;10.20;99.90;;;;;;5015520;28;20033;-75
2022/11/10 00:44:00;;;;;;;26.38;25.38;;;10.30;99.90;;;;;;4997680;28;20030;-75
2022/11/10 00:46:25;;;;;;;24.25;23.35;;;10.20;99.90;;;;;;5002528;28;20025;-75
2022/11/10 00:48:51;;;;;;;23.90;23.00;;;10.20;99.90;;;;;;4999693;28;20030;-74
2022/11/10 00:51:25;;;;;;;22.92;22.13;;;10.20;99.90;;;;;;5012903;28;20022;-74
2022/11/10 00:53:51;;;;;;;24.27;23.38;;;10.20;99.90;;;;;;5012511;28;20137;-73
2022/11/10 00:56:18;;;;;;;22.75;21.95;;;10.20;99.90;;;;;;5001681;28;20034;-73
2022/11/10 00:58:43;;;;;;;22.77;21.98;;;10.10;99.90;;;;;;5009653;28;20538;-74
2022/11/10 01:01:10;;;;;;;22.70;21.90;;;10.00;99.90;;;;;;5011397;28;20045;-74
2022/11/10 01:03:35;;;;;;;22.30;21.50;;;10.10;99.90;;;;;;4995120;28;20030;-74
2022/11/10 01:06:09;;;;;;;21.42;20.63;;;10.00;99.90;;;;;;5012517;28;20018;-74
2022/11/10 01:08:36;;;;;;;21.15;20.35;;;9.90;99.90;;;;;;5011002;28;20022;-73
2022/11/10 01:11:03;;;;;;;21.52;20.73;;;9.90;99.90;;;;;;5012376;28;20057;-73
2022/11/10 01:13:29;;;;;;;19.20;18.50;;;9.80;99.90;;;;;;5010881;28;20026;-73
2022/11/10 01:15:54;;;;;;;19.20;18.50;;;9.70;99.90;;;;;;5001096;28;20392;-73
2022/11/10 01:18:20;;;;;;;19.75;19.05;;;9.60;99.90;;;;;;5010399;28;20129;-74
2022/11/10 01:20:50;;;;;;;22.13;21.23;;;9.60;99.90;;;;;;5001046;28;20103;-73
2022/11/10 01:23:15;;;;;;;18.52;17.83;;;9.50;99.90;;;;;;4996390;28;20037;-74
2022/11/10 01:25:41;;;;;;;19.10;18.40;;;9.40;99.90;;;;;;5011981;28;20026;-73
2022/11/10 01:28:07;;;;;;;19.63;18.92;;;9.30;99.90;;;;;;5012120;28;20022;-76
2022/11/10 01:30:32;;;;;;;21.08;20.27;;;9.40;99.90;;;;;;5012158;28;20018;-75
2022/11/10 01:32:58;;;;;;;20.33;19.63;;;9.30;99.90;;;;;;5010883;28;20029;-76
2022/11/10 01:35:23;;;;;;;19.70;19.00;;;9.30;99.90;;;;;;5012385;28;20030;-76
2022/11/10 01:37:51;;;;;;;19.05;18.35;;;9.30;99.90;;;;;;5010638;28;20077;-76
2022/11/10 01:40:17;;;;;;;19.92;19.23;;;9.30;99.90;;;;;;5012262;28;20380;-76
2022/11/10 01:42:54;;;;;;;19.33;18.63;;;9.20;99.90;;;;;;5010858;28;20022;-76
2022/11/10 01:45:23;;;;;;;18.05;17.38;;;9.20;99.90;;;;;;5010655;28;20026;-76
2022/11/10 01:47:51;;;;;;;18.50;17.80;;;9.10;99.90;;;;;;5011753;28;20026;-76
2022/11/10 01:50:18;;;;;;;17.60;17.00;;;9.10;99.90;;;;;;5010721;28;20022;-76
2022/11/10 01:52:47;;;;;;;19.17;18.48;;;9.10;99.90;;;;;;5011973;28;20380;-76
2022/11/10 01:55:12;;;;;;;17.70;17.10;;;9.00;99.90;;;;;;5009601;28;20069;-76
2022/11/10 01:57:39;;;;;;;19.05;18.35;;;9.00;99.90;;;;;;4992004;28;20050;-74
2022/11/10 02:00:05;;;;;;;17.60;17.00;;;9.10;99.90;;;;;;4993492;28;20041;-76
2022/11/10 02:02:38;;;;;;;17.02;16.42;;;9.00;99.90;;;;;;4998183;28;20488;-76
2022/11/10 02:05:04;;;;;;;18.40;17.70;;;9.00;99.90;;;;;;5006279;28;20022;-75
2022/11/10 02:07:30;;;;;;;17.63;17.02;;;8.90;99.90;;;;;;5010018;28;20117;-76
2022/11/10 02:09:56;;;;;;;18.20;17.50;;;8.90;99.90;;;;;;5011618;28;20072;-76
2022/11/10 02:12:35;;;;;;;17.48;16.88;;;8.90;99.90;;;;;;5011490;28;20038;-76
2022/11/10 02:15:03;;;;;;;16.17;15.57;;;8.80;99.90;;;;;;5010208;28;20033;-76
2022/11/10 02:17:28;;;;;;;15.63;15.02;;;8.70;99.90;;;;;;5011240;28;20034;-75
2022/11/10 02:20:03;;;;;;;14.80;14.30;;;8.60;99.90;;;;;;5010507;28;20090;-74
2022/11/10 02:22:29;;;;;;;14.02;13.52;;;8.60;99.90;;;;;;5011480;28;20080;-74
2022/11/10 02:24:55;;;;;;;16.08;15.48;;;8.40;99.90;;;;;;5011408;28;20057;-74
2022/11/10 02:27:21;;;;;;;14.63;14.13;;;8.40;99.90;;;;;;5009901;28;20046;-74
2022/11/10 02:29:47;;;;;;;14.40;13.90;;;8.30;99.90;;;;;;5011333;28;20057;-73
2022/11/10 02:32:12;;;;;;;15.35;14.80;;;8.20;99.90;;;;;;5011266;28;20029;-74
2022/11/10 02:34:38;;;;;;;14.50;14.00;;;8.30;99.90;;;;;;5011294;28;20388;-75
2022/11/10 02:37:03;;;;;;;14.70;14.20;;;8.30;99.90;;;;;;4999197;28;20635;-74
2022/11/10 02:39:29;;;;;;;13.95;13.45;;;8.20;99.90;;;;;;5011691;28;20021;-74
2022/11/10 02:41:54;;;;;;;14.35;13.85;;;8.30;99.90;;;;;;5014578;28;20038;-74
2022/11/10 02:44:20;;;;;;;13.55;13.05;;;8.10;99.90;;;;;;5009444;28;20053;-75
2022/11/10 02:46:46;;;;;;;14.05;13.55;;;8.10;99.90;;;;;;5006902;28;20198;-74
2022/11/10 02:49:12;;;;;;;14.23;13.73;;;8.10;99.90;;;;;;5013377;28;20164;-74
2022/11/10 02:51:37;;;;;;;15.60;15.00;;;8.10;99.90;;;;;;5013528;28;20053;-75
2022/11/10 02:54:03;;;;;;;14.52;14.02;;;8.20;99.90;;;;;;5009986;28;20033;-75
2022/11/10 02:56:29;;;;;;;14.20;13.70;;;8.10;99.90;;;;;;5005562;28;20030;-75
2022/11/10 02:58:54;;;;;;;15.80;15.20;;;7.90;99.90;;;;;;5001138;28;20029;-75
2022/11/10 03:01:20;;;;;;;14.73;14.23;;;7.80;99.90;;;;;;5002816;28;20034;-75
2022/11/10 03:03:45;;;;;;;14.20;13.70;;;7.60;99.90;;;;;;5007923;28;20033;-75
2022/11/10 03:06:11;;;;;;;14.30;13.80;;;7.60;99.90;;;;;;5006307;28;20093;-75
2022/11/10 03:08:38;;;;;;;14.30;13.80;;;7.60;99.90;;;;;;4999743;28;20036;-76
2022/11/10 03:11:04;;;;;;;14.77;14.27;;;7.60;99.90;;;;;;5003334;28;20034;-75
2022/11/10 03:13:29;;;;;;;13.82;13.32;;;7.60;99.90;;;;;;5006510;28;20027;-76
2022/11/10 03:15:55;;;;;;;14.88;14.38;;;7.50;99.90;;;;;;5005500;28;20026;-76
2022/11/10 03:18:21;;;;;;;14.68;14.18;;;7.40;99.90;;;;;;4999723;28;20030;-76
2022/11/10 03:20:48;;;;;;;14.10;13.60;;;7.40;99.90;;;;;;5003414;28;20034;-75
2022/11/10 03:23:17;;;;;;;14.23;13.73;;;7.50;99.90;;;;;;5006258;28;20113;-75
2022/11/10 03:25:44;;;;;;;13.05;12.55;;;7.70;99.90;;;;;;5005910;28;20046;-75
2022/11/10 03:28:10;;;;;;;14.50;14.00;;;7.50;99.90;;;;;;5000692;28;20033;-76
2022/11/10 03:30:35;;;;;;;13.73;13.23;;;7.60;99.90;;;;;;5001060;28;20023;-76
2022/11/10 03:33:01;;;;;;;13.70;13.20;;;7.60;99.90;;;;;;4998003;28;20120;-75
2022/11/10 03:35:27;;;;;;;13.23;12.73;;;7.60;99.90;;;;;;5002640;28;20030;-75
2022/11/10 03:37:52;;;;;;;14.10;13.60;;;7.70;99.90;;;;;;4997653;28;20088;-75
2022/11/10 03:40:18;;;;;;;14.10;13.60;;;7.80;99.90;;;;;;5002663;28;20030;-75
2022/11/10 03:42:44;;;;;;;13.60;13.10;;;7.90;99.90;;;;;;5007247;28;20034;-75
2022/11/10 03:45:12;;;;;;;13.60;13.10;;;8.00;99.90;;;;;;4994064;28;20030;-75
2022/11/10 03:47:38;;;;;;;14.15;13.65;;;8.10;99.90;;;;;;5005767;28;20465;-74
2022/11/10 03:50:04;;;;;;;14.82;14.32;;;8.10;99.90;;;;;;5003413;28;20500;-75
2022/11/10 03:52:30;;;;;;;12.50;12.10;;;8.10;99.90;;;;;;4993718;28;20076;-75
2022/11/10 03:54:56;;;;;;;14.32;13.82;;;8.00;99.90;;;;;;5005517;28;20061;-75
2022/11/10 03:57:21;;;;;;;12.23;11.82;;;7.80;99.90;;;;;;4999191;28;20030;-76
2022/11/10 03:59:47;;;;;;;13.35;12.85;;;7.80;99.90;;;;;;5001616;28;20540;-75
2022/11/10 04:02:12;;;;;;;13.25;12.75;;;7.80;99.90;;;;;;5002722;28;20030;-75
2022/11/10 04:10:07;;;;;;;13.35;12.85;;;7.70;99.90;;;;;;5000497;28;20399;-75
2022/11/10 04:20:45;;;;;;;13.50;13.00;;;7.70;99.90;;;;;;5001856;28;20033;-75
2022/11/10 04:23:26;;;;;;;14.52;14.02;;;7.70;99.90;;;;;;5006319;28;20026;-74
2022/11/10 04:28:41;;;;;;;12.57;12.18;;;7.70;99.90;;;;;;5003403;28;20025;-74
2022/11/10 04:31:07;;;;;;;13.60;13.10;;;7.60;99.90;;;;;;4998385;28;20033;-75
2022/11/10 04:33:34;;;;;;;12.90;12.40;;;7.50;99.90;;;;;;5001550;28;20572;-75
2022/11/10 04:35:59;;;;;;;12.73;12.13;;;7.60;99.90;;;;;;5006212;28;20130;-74
2022/11/10 04:38:25;;;;;;;14.68;14.18;;;7.60;99.90;;;;;;5003016;28;20392;-75
2022/11/10 04:40:51;;;;;;;12.95;12.45;;;7.70;99.90;;;;;;4999432;28;20472;-74
2022/11/10 04:43:16;;;;;;;12.95;12.45;;;7.70;99.90;;;;;;5001393;28;20048;-74
2022/11/10 04:45:42;;;;;;;12.88;12.40;;;7.80;99.90;;;;;;5006122;28;20107;-74
2022/11/10 04:48:08;;;;;;;13.43;12.93;;;7.80;99.90;;;;;;5002707;28;20020;-74
2022/11/10 04:50:34;;;;;;;14.50;14.00;;;7.80;99.90;;;;;;4998255;28;20014;-74
2022/11/10 04:52:59;;;;;;;13.82;13.32;;;7.90;99.90;;;;;;5002552;28;20074;-75
2022/11/10 04:55:25;;;;;;;13.27;12.77;;;7.80;99.90;;;;;;5008391;28;20500;-74
2022/11/10 04:57:50;;;;;;;12.15;11.75;;;7.50;99.90;;;;;;5001472;28;20038;-75
2022/11/10 05:00:16;;;;;;;13.52;13.02;;;7.30;99.90;;;;;;4995678;28;20442;-74
2022/11/10 05:02:42;;;;;;;13.02;12.52;;;7.30;99.90;;;;;;4998668;28;20035;-75
2022/11/10 05:05:08;;;;;;;14.50;14.00;;;7.20;99.90;;;;;;5008622;28;20510;-73
2022/11/10 05:07:33;;;;;;;13.93;13.43;;;7.30;99.90;;;;;;5012182;28;20033;-73
2022/11/10 05:09:59;;;;;;;15.32;14.73;;;7.30;99.90;;;;;;5012204;28;20088;-73
2022/11/10 05:12:24;;;;;;;13.70;13.20;;;7.30;99.90;;;;;;5012177;28;20040;-73
2022/11/10 05:14:50;;;;;;;13.50;13.00;;;7.30;99.90;;;;;;5010895;28;20041;-73
2022/11/10 05:17:16;;;;;;;14.23;13.73;;;7.40;99.90;;;;;;5012464;28;20029;-75
2022/11/10 05:19:41;;;;;;;13.40;12.90;;;7.50;99.90;;;;;;5012249;28;20029;-75
2022/11/10 05:22:07;;;;;;;13.73;13.23;;;7.60;99.90;;;;;;5011976;28;20018;-74
2022/11/10 05:24:33;;;;;;;12.85;12.35;;;7.70;99.90;;;;;;5011953;28;20025;-73
2022/11/10 05:26:58;;;;;;;16.23;15.63;;;7.50;99.90;;;;;;5010495;28;20026;-73
2022/11/10 05:29:24;;;;;;;15.30;14.75;;;7.30;99.90;;;;;;4996006;28;20054;-75
2022/11/10 05:31:49;;;;;;;16.23;15.63;;;7.30;99.90;;;;;;4991982;28;20033;-75
2022/11/10 05:34:15;;;;;;;15.15;14.55;;;7.20;99.90;;;;;;5006157;28;20041;-75
2022/11/10 05:36:40;;;;;;;13.00;12.50;;;7.20;99.90;;;;;;4997597;28;20033;-75
2022/11/10 05:39:06;;;;;;;14.05;13.55;;;7.20;99.90;;;;;;5005626;28;20045;-75
2022/11/10 05:41:31;;;;;;;14.40;13.90;;;7.10;99.90;;;;;;4992428;28;20038;-75
2022/11/10 05:43:57;;;;;;;14.40;13.90;;;7.00;99.90;;;;;;4992181;28;20022;-75
2022/11/10 05:46:22;;;;;;;14.50;13.98;;;7.10;99.90;;;;;;4998226;28;20022;-75
2022/11/10 05:48:48;;;;;;;14.55;14.05;;;7.20;99.90;;;;;;4999922;28;20014;-75
2022/11/10 05:51:14;;;;;;;14.63;14.13;;;7.30;99.90;;;;;;4999983;28;20029;-74
2022/11/10 05:53:39;;;;;;;17.02;16.40;;;7.30;99.90;;;;;;4997151;28;20488;-74
2022/11/10 05:56:05;;;;;;;12.13;11.73;;;7.10;99.90;;;;;;5002480;28;20038;-75
2022/11/10 05:58:31;;;;;;;13.25;12.75;;;6.90;99.90;;;;;;5004993;28;20030;-75
2022/11/10 06:00:56;;;;;;;13.38;12.88;;;6.90;99.90;;;;;;5000361;28;20036;-75
2022/11/10 06:03:22;;;;;;;13.77;13.27;;;6.90;99.90;;;;;;4996327;28;20022;-76
2022/11/10 06:05:48;;;;;;;14.80;14.30;;;7.00;99.90;;;;;;4994220;28;20038;-75
2022/11/10 06:08:14;;;;;;;14.73;14.15;;;7.00;99.90;;;;;;4999233;28;20400;-74
2022/11/10 06:10:39;;;;;;;16.40;15.75;;;7.00;99.90;;;;;;5011600;28;20030;-74
2022/11/10 06:13:05;;;;;;;13.60;13.10;;;6.90;99.90;;;;;;4997037;28;20037;-74
2022/11/10 06:15:31;;;;;;;15.07;14.55;;;7.00;99.90;;;;;;5006850;28;20026;-74
2022/11/10 06:17:57;;;;;;;13.77;13.27;;;7.00;99.90;;;;;;5008611;28;20029;-74
2022/11/10 06:20:24;;;;;;;16.67;15.98;;;7.00;99.90;;;;;;5003289;28;20554;-74
2022/11/10 06:23:04;;;;;;;15.25;14.40;;;6.80;99.90;;;;;;5000814;28;20054;-74
2022/11/10 06:25:31;;;;;;;14.90;14.30;;;6.60;99.90;;;;;;5004267;28;20026;-74
2022/11/10 06:27:57;;;;;;;14.23;13.73;;;6.70;99.90;;;;;;5008438;28;20030;-74
2022/11/10 06:30:23;;;;;;;14.85;14.35;;;6.70;99.90;;;;;;4995525;28;20081;-74
2022/11/10 06:32:49;;;;;;;14.18;13.68;;;6.70;99.90;;;;;;5008550;28;20536;-74
2022/11/10 06:35:14;;;;;;;16.35;15.57;;;6.50;99.90;;;;;;5004116;28;20034;-74
2022/11/10 06:37:40;;;;;;;11.35;10.95;;;6.60;99.90;;;;;;4998156;28;20037;-73
2022/11/10 06:40:08;;;;;;;12.82;12.32;;;6.60;99.90;;;;;;5005196;28;20047;-74
2022/11/10 06:42:34;;;;;;;15.77;15.18;;;6.50;99.90;;;;;;5001645;28;20037;-74
2022/11/10 06:45:00;;;;;;;18.00;17.30;;;6.50;99.90;;;;;;5004678;28;20030;-74
2022/11/10 06:47:26;;;;;;;13.20;12.70;;;6.40;99.90;;;;;;5012051;28;20030;-75
2022/11/10 06:49:52;;;;;;;11.73;11.32;;;6.40;99.90;;;;;;5013582;28;20092;-74
2022/11/10 06:52:17;;;;;;;12.88;12.38;;;6.40;99.90;;;;;;5013366;28;20500;-73
2022/11/10 06:54:43;;;;;;;13.48;12.98;;;6.50;99.90;;;;;;5004230;28;20511;-73
2022/11/10 06:57:08;;;;;;;12.93;12.43;;;6.70;99.90;;;;;;4998640;28;20519;-73
2022/11/10 06:59:34;;;;;;;12.40;12.00;;;6.60;99.90;;;;;;5004432;28;20508;-73
2022/11/10 07:01:59;;;;;;;12.57;12.18;;;6.70;99.90;;;;;;4994855;28;20542;-74
2022/11/10 07:04:25;;;;;;;12.02;11.63;;;6.90;99.90;;;;;;4994977;28;20392;-74
2022/11/10 07:06:50;;;;;;;14.20;13.60;;;7.10;99.90;;;;;;4996972;28;20488;-73
2022/11/10 07:09:16;;;;;;;12.95;12.45;;;6.90;99.90;;;;;;5014368;28;20022;-74
2022/11/10 07:11:42;;;;;;;11.50;11.10;;;6.70;99.90;;;;;;5009550;28;20030;-74
2022/11/10 07:14:08;;;;;;;11.50;11.10;;;6.80;99.90;;;;;;4994913;28;20026;-74
2022/11/10 07:16:34;;;;;;;13.68;13.18;;;6.70;99.90;;;;;;4994931;28;20026;-74
2022/11/10 07:18:59;;;;;;;13.80;13.30;;;6.70;99.90;;;;;;4994737;28;20092;-74
2022/11/10 07:21:25;;;;;;;12.63;12.13;;;6.90;99.90;;;;;;4994533;28;20049;-75
2022/11/10 07:23:50;;;;;;;12.70;12.25;;;7.00;99.90;;;;;;5004769;28;20412;-74
2022/11/10 07:26:16;;;;;;;14.38;13.88;;;7.10;99.90;;;;;;5014004;28;20018;-74
2022/11/10 07:28:41;;;;;;;15.10;14.60;;;7.10;99.90;;;;;;5003773;28;20389;-74
2022/11/10 07:31:07;;;;;;;14.80;14.30;;;7.20;99.90;;;;;;5007723;28;20362;-74
2022/11/10 07:33:33;;;;;;;14.52;14.02;;;7.30;99.90;;;;;;5004481;28;20483;-75
2022/11/10 07:36:02;;;;;;;14.00;13.50;;;7.40;99.90;;;;;;4997236;28;20034;-74
2022/11/10 07:38:28;;;;;;;14.07;13.57;;;7.50;99.90;;;;;;4994328;28;20025;-74
2022/11/10 07:40:54;;;;;;;17.52;16.80;;;7.60;99.90;;;;;;4992972;28;20112;-74
2022/11/10 07:43:21;;;;;;;15.10;14.60;;;7.70;99.90;;;;;;5004781;28;20025;-75
2022/11/10 07:45:48;;;;;;;14.15;13.65;;;7.80;99.90;;;;;;4998954;28;20026;-75
2022/11/10 07:48:14;;;;;;;15.48;14.88;;;7.90;99.90;;;;;;5011951;28;20097;-74
2022/11/10 07:50:41;;;;;;;13.98;13.48;;;8.10;99.90;;;;;;5011533;28;20474;-75
2022/11/10 07:53:18;;;;;;;13.80;13.30;;;8.30;99.90;;;;;;5011823;28;20504;-73
2022/11/10 07:55:45;;;;;;;15.05;14.55;;;8.40;99.90;;;;;;5004398;28;20481;-75
2022/11/10 07:58:12;;;;;;;15.90;15.30;;;8.40;99.90;;;;;;4993686;28;20062;-75
2022/11/10 08:00:39;;;;;;;16.25;15.55;;;8.50;99.90;;;;;;4993874;28;20029;-74
2022/11/10 08:03:13;;;;;;;15.55;14.95;;;8.50;99.90;;;;;;4993756;28;20106;-74
2022/11/10 08:05:39;;;;;;;15.77;15.18;;;8.50;99.90;;;;;;4994028;28;20420;-74
2022/11/10 08:08:05;;;;;;;15.77;15.18;;;8.60;99.90;;;;;;4992127;28;20033;-74
2022/11/10 08:10:32;;;;;;;14.80;14.30;;;8.70;99.90;;;;;;4993767;28;20385;-74
2022/11/10 08:12:59;;;;;;;18.25;17.55;;;8.80;99.90;;;;;;4993648;28;20018;-74
2022/11/10 08:15:26;;;;;;;18.25;17.45;;;8.80;99.90;;;;;;4993790;28;20030;-74
2022/11/10 08:18:14;;;;;;;16.83;16.23;;;8.80;99.90;;;;;;5007377;28;20068;-74
2022/11/10 08:20:41;;;;;;;16.23;15.63;;;8.70;99.90;;;;;;5013086;28;20025;-74
2022/11/10 08:23:07;;;;;;;17.27;16.67;;;8.80;99.90;;;;;;4995298;28;20105;-74
2022/11/10 08:25:34;;;;;;;16.13;15.52;;;8.70;99.90;;;;;;4993452;28;20050;-74
2022/11/10 08:28:03;;;;;;;17.83;17.20;;;8.70;99.90;;;;;;4993331;28;20487;-74
2022/11/10 08:30:29;;;;;;;18.02;17.35;;;8.70;99.90;;;;;;4993248;28;20026;-74
2022/11/10 08:33:00;;;;;;;20.80;20.00;;;8.70;99.90;;;;;;5006227;28;20113;-74
2022/11/10 08:35:28;;;;;;;18.05;17.38;;;8.60;99.90;;;;;;5005092;28;20139;-74
2022/11/10 08:37:53;;;;;;;17.73;17.02;;;8.60;99.90;;;;;;5011816;28;20075;-74
2022/11/10 08:40:20;;;;;;;19.60;18.90;;;8.60;99.90;;;;;;5012549;28;20034;-74
2022/11/10 08:42:47;;;;;;;18.27;17.58;;;8.70;99.90;;;;;;5012432;28;20022;-73
2022/11/10 08:45:13;;;;;;;19.52;18.83;;;8.60;99.90;;;;;;5012537;28;20018;-74
2022/11/10 08:47:39;;;;;;;20.95;20.15;;;8.60;99.90;;;;;;5010990;28;20045;-74
2022/11/10 08:50:06;;;;;;;19.48;18.77;;;8.60;99.90;;;;;;5000445;28;20468;-74
2022/11/10 08:52:31;;;;;;;20.88;20.08;;;8.60;99.90;;;;;;4997466;28;20034;-74
2022/11/10 08:54:57;;;;;;;20.17;19.48;;;8.60;99.90;;;;;;5012292;28;20384;-74
2022/11/10 08:57:23;;;;;;;20.23;19.52;;;8.60;99.90;;;;;;4991316;28;20034;-74
2022/11/10 08:59:48;;;;;;;18.23;17.52;;;8.70;99.90;;;;;;4992667;28;20062;-73
2022/11/10 09:02:14;;;;;;;17.05;16.45;;;8.80;99.90;;;;;;5001391;28;20042;-74
2022/11/10 09:04:39;;;;;;;18.52;17.83;;;8.90;99.90;;;;;;5004678;28;20108;-74
2022/11/10 09:07:05;;;;;;;21.13;20.33;;;8.90;99.90;;;;;;5011982;28;20109;-74
2022/11/10 09:09:30;;;;;;;30.50;28.33;;;9.00;99.90;;;;;;5012142;28;20022;-74
2022/11/10 09:11:56;;;;;;;21.08;20.27;;;9.00;99.90;;;;;;5012030;28;20038;-75
2022/11/10 09:14:21;;;;;;;21.45;20.55;;;9.10;99.90;;;;;;5012127;28;20498;-74
2022/11/10 09:16:47;;;;;;;29.05;27.65;;;9.00;99.90;;;;;;5004293;28;20531;-74
2022/11/10 09:19:12;;;;;;;19.75;19.05;;;9.00;99.90;;;;;;5003763;28;20040;-75
2022/11/10 09:21:38;;;;;;;20.60;19.85;;;9.10;99.90;;;;;;4996965;28;20037;-74
2022/11/10 09:24:04;;;;;;;22.42;21.63;;;9.30;99.90;;;;;;5005967;28;20046;-74
2022/11/10 09:26:30;;;;;;;20.98;20.17;;;9.40;99.90;;;;;;5011861;28;20061;-74
2022/11/10 09:28:56;;;;;;;21.75;20.95;;;9.40;99.90;;;;;;5011694;28;20025;-75
2022/11/10 09:31:21;;;;;;;21.73;20.92;;;9.50;99.90;;;;;;5005828;28;20197;-74
2022/11/10 09:33:47;;;;;;;20.15;19.30;;;9.50;99.90;;;;;;5006236;28;20030;-74
2022/11/10 09:36:12;;;;;;;21.40;20.60;;;9.60;99.90;;;;;;5008126;28;20079;-74
2022/11/10 09:38:38;;;;;;;19.27;18.58;;;9.60;99.90;;;;;;5010180;28;20054;-74
2022/11/10 09:41:11;;;;;;;19.60;18.90;;;9.70;99.90;;;;;;5004126;28;20105;-74
2022/11/10 09:43:50;;;;;;;21.38;20.58;;;9.80;99.90;;;;;;5010418;28;20484;-75
2022/11/10 09:46:22;;;;;;;23.40;22.40;;;9.80;99.90;;;;;;5010480;28;20113;-75
2022/11/10 09:49:02;;;;;;;21.52;20.17;;;9.90;99.90;;;;;;5011049;28;20033;-74
2022/11/10 09:51:33;;;;;;;23.77;22.88;;;9.90;99.90;;;;;;4996168;28;20027;-75
2022/11/10 09:54:24;;;;;;;22.40;21.50;;;9.90;99.90;;;;;;4994869;28;20034;-75
2022/11/10 09:56:52;;;;;;;20.15;19.45;;;9.90;99.90;;;;;;4985050;28;20042;-75
2022/11/10 09:59:36;;;;;;;21.15;20.33;;;9.90;99.90;;;;;;4996129;28;20023;-75
2022/11/10 10:02:27;;;;;;;20.05;19.35;;;10.00;99.90;;;;;;4994695;28;20026;-75
2022/11/10 10:05:31;;;;;;;23.98;23.08;;;10.00;99.90;;;;;;4996036;28;20049;-75
2022/11/10 10:08:06;;;;;;;22.88;22.08;;;10.10;99.90;;;;;;5008588;28;20025;-75
2022/11/10 10:10:38;;;;;;;24.20;23.30;;;10.10;99.90;;;;;;5006952;28;20121;-75
2022/11/10 10:13:26;;;;;;;22.90;22.10;;;10.20;99.90;;;;;;5010386;28;20807;-74
2022/11/10 10:16:02;;;;;;;21.63;20.83;;;10.20;99.90;;;;;;5015476;28;20480;-75
2022/11/10 10:18:53;;;;;;;19.83;19.13;;;10.20;99.90;;;;;;4998902;28;20030;-75
2022/11/10 10:21:40;;;;;;;24.00;23.10;;;10.20;99.90;;;;;;5011458;28;20022;-74
2022/11/10 10:24:12;;;;;;;23.48;22.60;;;10.30;99.90;;;;;;5014140;28;20072;-74
2022/11/10 10:26:40;;;;;;;22.55;21.75;;;10.40;99.90;;;;;;5020437;28;20092;-75
2022/11/10 10:29:10;;;;;;;21.70;20.90;;;10.50;99.90;;;;;;5020214;28;20108;-75
2022/11/10 10:31:42;;;;;;;23.17;22.20;;;10.50;99.90;;;;;;5013929;28;20443;-74
2022/11/10 10:34:16;;;;;;;21.25;20.45;;;10.60;99.90;;;;;;5015186;28;20364;-75
2022/11/10 10:36:43;;;;;;;37.08;27.13;;;10.60;99.90;;;;;;5015098;28;20029;-75
2022/11/10 10:39:25;;;;;;;21.30;20.50;;;10.50;99.90;;;;;;5014955;28;20026;-75
2022/11/10 10:41:50;;;;;;;21.98;21.17;;;10.50;99.90;;;;;;5002817;28;20034;-74
2022/11/10 10:44:18;;;;;;;22.88;22.08;;;10.50;99.90;;;;;;4995393;28;20077;-74
2022/11/10 10:46:47;;;;;;;21.08;20.27;;;10.80;99.90;;;;;;5005033;28;20113;-75
2022/11/10 10:49:25;;;;;;;19.42;18.73;;;10.60;99.90;;;;;;5014806;28;20032;-75
2022/11/10 10:52:01;;;;;;;23.42;22.52;;;10.50;99.90;;;;;;5014298;28;20048;-74
2022/11/10 10:54:28;;;;;;;;;;;10.50;99.90;;;;;;5014477;28;20467;-74
2022/11/10 10:57:03;;;;;;;22.60;21.80;;;10.50;99.90;;;;;;4997615;28;20277;-75
2022/11/10 10:59:29;;;;;;;22.17;21.38;;;10.60;99.90;;;;;;4994728;28;20018;-75
2022/11/10 11:01:55;;;;;;;22.15;21.35;;;10.50;99.90;;;;;;4999416;28;20057;-75
2022/11/10 11:04:34;;;;;;;22.20;21.40;;;10.70;99.90;;;;;;5014625;28;20460;-75
2022/11/10 11:07:18;;;;;;;21.85;21.05;;;10.70;99.90;;;;;;5014824;28;20026;-74
2022/11/10 11:09:44;;;;;;;21.27;20.48;;;10.70;99.90;;;;;;5015095;28;20550;-74
2022/11/10 11:12:19;;;;;;;21.27;20.48;;;10.80;99.90;;;;;;5014433;28;20030;-74
2022/11/10 11:14:44;;;;;;;18.42;17.73;;;10.90;99.90;;;;;;5013088;28;20026;-74
2022/11/10 11:17:28;;;;;;;20.52;19.77;;;11.00;99.90;;;;;;5006252;28;20480;-76
2022/11/10 11:19:54;;;;;;;17.08;16.48;;;11.30;99.90;;;;;;5007776;28;20027;-75
2022/11/10 11:22:45;;;;;;;19.15;18.45;;;11.40;99.90;;;;;;5004792;28;20560;-75
2022/11/10 11:25:32;;;;;;;19.48;18.77;;;11.50;99.90;;;;;;5005712;28;20576;-75
2022/11/10 11:28:17;;;;;;;;;;;11.60;99.90;;;;;;4998031;28;20032;-75
2022/11/10 11:31:05;;;;;;;20.38;19.65;;;11.50;99.90;;;;;;5000945;28;20161;-76
2022/11/10 11:34:08;;;;;;;20.02;19.30;;;11.70;99.90;;;;;;4991722;28;20092;-76
2022/11/10 11:36:58;;;;;;;21.85;20.88;;;11.70;99.90;;;;;;5012603;28;20029;-76
2022/11/10 11:40:01;;;;;;;19.75;19.05;;;11.60;99.90;;;;;;5000794;28;20105;-76
2022/11/10 11:42:46;;;;;;;18.27;17.58;;;11.50;99.90;;;;;;5000409;28;20027;-75
2022/11/10 11:45:18;;;;;;;19.75;19.05;;;11.50;99.90;;;;;;5013694;28;20023;-75
2022/11/10 11:47:55;;;;;;;22.98;21.98;;;11.70;99.90;;;;;;5008061;28;20049;-76
2022/11/10 11:50:28;;;;;;;17.00;16.40;;;11.90;99.90;;;;;;4994119;28;20022;-76
2022/11/10 11:53:31;;;;;;;16.05;15.45;;;12.00;99.90;;;;;;4974440;28;20041;-76
2022/11/10 11:56:11;;;;;;;25.98;24.70;;;12.00;99.90;;;;;;4981945;28;20037;-76
2022/11/10 11:58:44;;;;;;;16.05;15.45;;;12.00;99.90;;;;;;5009719;28;20037;-77
2022/11/10 12:01:41;;;;;;;19.33;18.50;;;12.00;99.90;;;;;;5002220;28;20030;-76
2022/11/10 12:04:21;;;;;;;16.95;16.35;;;11.80;99.90;;;;;;4958580;28;20031;-76
2022/11/10 12:07:05;;;;;;;16.13;15.52;;;11.80;99.90;;;;;;4993824;28;20027;-76
2022/11/10 12:09:39;;;;;;;13.65;12.85;;;11.70;99.90;;;;;;4992506;28;20392;-76
2022/11/10 12:12:24;;;;;;;10.73;10.32;;;11.60;99.90;;;;;;4978967;28;20539;-75
2022/11/10 12:15:19;;;;;;;13.57;7.90;;;11.60;99.90;;;;;;4993692;28;20428;-75
2022/11/10 12:18:27;;;;;;;3.92;3.72;;;11.70;99.90;;;;;;5006535;28;20076;-76
2022/11/10 12:21:17;;;;;;;3.33;3.22;;;11.90;99.90;;;;;;4998092;28;20025;-75
2022/11/10 12:23:46;;;;;;;4.30;4.20;;;11.90;99.90;;;;;;5002667;28;20376;-76
2022/11/10 12:26:34;;;;;;;3.78;3.67;;;11.80;99.90;;;;;;4995877;28;20439;-76
2022/11/10 12:29:05;;;;;;;4.10;4.00;;;11.80;99.90;;;;;;5008741;28;20109;-75
2022/11/10 12:31:34;;;;;;;5.13;4.93;;;11.80;99.90;;;;;;4998832;28;20042;-75
2022/11/10 12:34:16;;;;;;;6.25;6.05;;;11.90;99.90;;;;;;5011295;28;20032;-75
2022/11/10 12:36:43;;;;;;;4.88;4.68;;;12.30;99.90;;;;;;5012339;28;20026;-78
2022/11/10 12:39:23;;;;;;;5.25;5.05;;;12.40;99.90;;;;;;5010858;28;20076;-75
2022/11/10 12:41:56;;;;;;;4.10;4.00;;;12.20;99.90;;;;;;5010737;28;20030;-75
2022/11/10 12:44:50;;;;;;;4.80;4.55;;;12.20;99.90;;;;;;5011076;28;20111;-75
2022/11/10 12:47:18;;;;;;;6.32;5.40;;;12.10;99.90;;;;;;5012313;28;20068;-76
2022/11/10 12:50:09;;;;;;;4.03;3.92;;;12.10;99.90;;;;;;5011325;28;20455;-76
2022/11/10 12:52:46;;;;;;;4.05;3.95;;;12.00;99.90;;;;;;5012223;28;20168;-76
2022/11/10 12:55:13;;;;;;;4.00;3.90;;;12.00;99.90;;;;;;5010343;28;20037;-76
2022/11/10 12:57:41;;;;;;;4.10;4.00;;;12.00;99.90;;;;;;5000568;28;20076;-75
2022/11/10 13:00:24;;;;;;;4.28;4.18;;;11.90;99.90;;;;;;5012169;28;20450;-77
2022/11/10 13:02:51;;;;;;;2.15;2.08;;;12.20;99.90;;;;;;4996264;28;20113;-76
2022/11/10 13:05:26;;;;;;;1.20;1.20;;;12.50;99.90;;;;;;5010024;28;20022;-76
2022/11/10 13:08:11;;;;;;;1.05;1.05;;;12.50;99.90;;;;;;4999985;28;20519;-75